createdAt,value
2023-03-17T00:01:56.511Z,7.10
2023-03-17T00:04:25.697Z,5.97
2023-03-17T00:06:53.857Z,5.45
2023-03-17T00:09:22.519Z,6.50
2023-03-17T00:11:51.047Z,5.90
2023-03-17T00:14:20.024Z,5.80
2023-03-17T00:16:52.906Z,5.95
2023-03-17T00:19:32.397Z,8.17
2023-03-17T00:22:01.121Z,6.55
2023-03-17T00:24:29.995Z,6.82
2023-03-17T00:26:57.284Z,7.30
2023-03-17T00:29:25.664Z,6.97
2023-03-17T00:31:54.689Z,6.55
2023-03-17T00:34:23.540Z,83.20
2023-03-17T00:36:51.718Z,86.43
2023-03-17T00:39:19.816Z,19.70
2023-03-17T00:41:50.398Z,7.63
2023-03-17T00:44:18.712Z,7.20
2023-03-17T00:46:46.699Z,5.47
2023-03-17T00:49:21.534Z,5.90
2023-03-17T00:51:49.937Z,6.30
2023-03-17T00:54:18.865Z,6.23
2023-03-17T00:56:48.160Z,6.50
2023-03-17T00:59:21.935Z,5.23
2023-03-17T01:01:49.549Z,18.97
2023-03-17T01:04:17.203Z,8.33
2023-03-17T01:06:46.401Z,7.50
2023-03-17T01:09:16.516Z,7.27
2023-03-17T01:11:44.686Z,7.40
2023-03-17T01:14:13.159Z,6.60
2023-03-17T01:16:40.970Z,6.80
2023-03-17T01:19:11.726Z,5.67
2023-03-17T01:21:39.367Z,5.10
2023-03-17T01:24:07.151Z,6.27
2023-03-17T01:26:35.183Z,7.10
2023-03-17T01:29:02.690Z,6.00
2023-03-17T01:31:30.133Z,5.20
2023-03-17T01:33:58.872Z,5.47
2023-03-17T01:36:26.264Z,5.10
2023-03-17T01:38:53.961Z,6.47
2023-03-17T01:41:21.544Z,6.53
2023-03-17T01:43:50.077Z,6.70
2023-03-17T01:46:25.518Z,6.30
2023-03-17T01:49:33.245Z,6.93
2023-03-17T01:52:18.424Z,4.60
2023-03-17T01:54:59.231Z,5.07
2023-03-17T01:57:39.832Z,6.40
2023-03-17T02:00:12.099Z,6.03
2023-03-17T02:02:46.960Z,4.80
2023-03-17T02:05:18.078Z,5.60
2023-03-17T02:07:46.112Z,6.10
2023-03-17T02:10:16.346Z,6.23
2023-03-17T02:12:48.199Z,5.93
2023-03-17T02:15:15.708Z,6.60
2023-03-17T02:17:44.387Z,6.20
2023-03-17T02:20:17.809Z,7.63
2023-03-17T02:22:52.667Z,5.73
2023-03-17T02:25:21.672Z,6.70
2023-03-17T02:30:22.474Z,5.87
2023-03-17T02:32:51.185Z,6.00
2023-03-17T02:35:19.725Z,6.00
2023-03-17T02:37:47.182Z,6.78
2023-03-17T02:40:15.854Z,7.55
2023-03-17T02:42:43.175Z,7.50
2023-03-17T02:45:12.398Z,4.67
2023-03-17T02:47:41.625Z,4.80
2023-03-17T02:50:12.189Z,5.37
2023-03-17T02:52:39.823Z,7.67
2023-03-17T02:55:08.500Z,7.30
2023-03-17T02:57:36.201Z,4.15
2023-03-17T03:00:04.936Z,5.53
2023-03-17T03:02:34.536Z,4.67
2023-03-17T03:05:01.824Z,4.13
2023-03-17T03:07:29.554Z,4.77
2023-03-17T03:09:56.828Z,5.40
2023-03-17T03:12:24.161Z,5.10
2023-03-17T03:14:51.911Z,5.67
2023-03-17T03:17:19.394Z,5.50
2023-03-17T03:19:47.491Z,4.47
2023-03-17T03:22:15.616Z,4.10
2023-03-17T03:24:42.889Z,3.57
2023-03-17T03:27:10.243Z,5.20
2023-03-17T03:29:38.487Z,4.73
2023-03-17T03:32:06.290Z,4.37
2023-03-17T03:34:34.099Z,5.47
2023-03-17T03:37:02.250Z,5.40
2023-03-17T03:39:29.544Z,4.67
2023-03-17T03:41:58.495Z,4.70
2023-03-17T03:46:53.470Z,3.90
2023-03-17T03:49:21.442Z,4.33
2023-03-17T03:51:49.095Z,4.80
2023-03-17T03:54:16.464Z,4.60
2023-03-17T03:56:43.880Z,3.77
2023-03-17T03:59:11.899Z,4.93
2023-03-17T04:01:40.287Z,4.50
2023-03-17T04:04:08.039Z,3.72
2023-03-17T04:06:35.599Z,8.93
2023-03-17T04:09:03.640Z,6.87
2023-03-17T04:11:31.675Z,5.30
2023-03-17T04:13:59.051Z,3.90
2023-03-17T04:16:27.195Z,4.00
2023-03-17T04:18:55.017Z,4.68
2023-03-17T04:21:22.699Z,4.37
2023-03-17T04:23:50.245Z,3.80
2023-03-17T04:26:18.994Z,3.77
2023-03-17T04:28:46.486Z,3.40
2023-03-17T04:31:13.842Z,3.30
2023-03-17T04:33:42.508Z,3.33
2023-03-17T04:36:18.373Z,3.20
2023-03-17T04:38:46.527Z,2.90
2023-03-17T04:41:14.810Z,3.03
2023-03-17T04:43:42.443Z,3.40
2023-03-17T04:46:10.289Z,3.47
2023-03-17T04:48:37.681Z,3.03
2023-03-17T04:51:05.373Z,4.10
2023-03-17T04:53:33.258Z,4.27
2023-03-17T04:56:00.758Z,3.00
2023-03-17T04:58:31.106Z,4.30
2023-03-17T05:00:59.627Z,4.20
2023-03-17T05:03:28.704Z,3.23
2023-03-17T05:06:01.018Z,3.03
2023-03-17T05:08:28.760Z,3.07
2023-03-17T05:10:57.545Z,2.90
2023-03-17T05:13:26.030Z,3.10
2023-03-17T05:15:55.613Z,3.05
2023-03-17T05:20:51.570Z,3.50
2023-03-17T05:23:19.702Z,3.70
2023-03-17T05:25:47.041Z,4.90
2023-03-17T05:28:14.916Z,3.63
2023-03-17T05:30:43.740Z,3.20
2023-03-17T05:33:11.115Z,4.25
2023-03-17T05:35:39.179Z,4.53
2023-03-17T05:38:07.113Z,3.08
2023-03-17T05:40:34.884Z,3.37
2023-03-17T05:43:02.236Z,3.53
2023-03-17T05:45:30.644Z,2.87
2023-03-17T05:47:58.254Z,2.70
2023-03-17T05:50:27.208Z,3.63
2023-03-17T05:52:54.943Z,3.47
2023-03-17T05:55:22.358Z,3.47
2023-03-17T05:57:49.852Z,2.60
2023-03-17T06:00:19.009Z,2.73
2023-03-17T06:02:47.396Z,3.03
2023-03-17T06:05:15.020Z,2.33
2023-03-17T06:07:52.851Z,4.20
2023-03-17T06:10:25.008Z,2.50
2023-03-17T06:12:52.639Z,2.95
2023-03-17T06:15:20.927Z,3.60
2023-03-17T06:17:48.770Z,3.83
2023-03-17T06:20:16.582Z,3.80
2023-03-17T06:23:02.262Z,4.07
2023-03-17T06:25:31.074Z,4.10
2023-03-17T06:27:58.709Z,4.20
2023-03-17T06:30:26.262Z,4.37
2023-03-17T06:32:54.599Z,4.83
2023-03-17T06:35:22.992Z,4.77
2023-03-17T06:37:50.408Z,4.35
2023-03-17T06:40:18.449Z,4.10
2023-03-17T06:42:45.890Z,4.17
2023-03-17T06:45:13.886Z,4.70
2023-03-17T06:47:41.521Z,5.50
2023-03-17T06:50:12.442Z,4.80
2023-03-17T06:52:41.016Z,4.63
2023-03-17T06:55:09.271Z,5.03
2023-03-17T06:57:37.546Z,4.30
2023-03-17T07:00:08.746Z,4.37
2023-03-17T07:02:36.890Z,4.67
2023-03-17T07:05:04.810Z,4.53
2023-03-17T07:07:32.685Z,5.57
2023-03-17T07:10:00.382Z,5.60
2023-03-17T07:12:28.882Z,5.67
2023-03-17T07:14:57.042Z,4.78
2023-03-17T07:17:25.422Z,4.15
2023-03-17T07:19:54.073Z,3.30
2023-03-17T07:22:22.940Z,3.27
2023-03-17T07:24:52.083Z,3.60
2023-03-17T07:27:22.780Z,3.30
2023-03-17T07:29:51.455Z,3.33
2023-03-17T07:32:19.481Z,3.60
2023-03-17T07:34:46.825Z,4.30
2023-03-17T07:37:14.484Z,4.13
2023-03-17T07:39:42.220Z,3.60
2023-03-17T07:42:14.976Z,3.77
2023-03-17T07:44:42.849Z,3.33
2023-03-17T07:47:14.729Z,3.17
2023-03-17T07:49:42.662Z,4.33
2023-03-17T07:52:11.047Z,3.80
2023-03-17T07:54:42.222Z,3.60
2023-03-17T07:57:11.719Z,2.70
2023-03-17T07:59:40.157Z,4.50
2023-03-17T08:02:08.715Z,3.80
2023-03-17T08:04:36.604Z,3.58
2023-03-17T08:07:06.414Z,3.57
2023-03-17T08:09:34.059Z,3.33
2023-03-17T08:12:02.071Z,3.10
2023-03-17T08:14:30.370Z,2.83
2023-03-17T08:16:57.851Z,2.73
2023-03-17T08:19:25.592Z,3.07
2023-03-17T08:21:53.122Z,5.77
2023-03-17T08:24:21.071Z,3.97
2023-03-17T08:26:49.538Z,2.50
2023-03-17T08:29:16.997Z,3.50
2023-03-17T08:31:46.631Z,2.93
2023-03-17T08:34:14.529Z,2.87
2023-03-17T08:36:42.186Z,2.93
2023-03-17T08:39:10.725Z,4.27
2023-03-17T08:41:38.931Z,3.03
2023-03-17T08:44:08.947Z,5.10
2023-03-17T08:46:36.764Z,4.17
2023-03-17T08:49:04.425Z,3.80
2023-03-17T08:51:34.915Z,3.43
2023-03-17T08:54:03.081Z,3.30
2023-03-17T08:56:30.892Z,2.62
2023-03-17T08:58:58.725Z,3.17
2023-03-17T09:01:27.499Z,2.67
2023-03-17T09:03:56.083Z,2.53
2023-03-17T09:06:24.337Z,3.20
2023-03-17T09:08:55.712Z,3.10
2023-03-17T09:11:29.331Z,3.10
2023-03-17T09:13:56.923Z,3.27
2023-03-17T09:16:25.106Z,2.37
2023-03-17T09:18:53.037Z,2.97
2023-03-17T09:21:21.544Z,2.70
2023-03-17T09:23:49.549Z,2.80
2023-03-17T09:26:17.125Z,2.87
2023-03-17T09:28:44.942Z,3.50
2023-03-17T09:31:13.124Z,2.47
2023-03-17T09:33:41.794Z,4.17
2023-03-17T09:36:10.806Z,3.40
2023-03-17T09:38:39.112Z,2.70
2023-03-17T09:41:16.104Z,4.17
2023-03-17T09:43:58.918Z,3.60
2023-03-17T09:46:48.031Z,2.40
2023-03-17T09:49:29.359Z,3.47
2023-03-17T09:51:57.181Z,2.90
2023-03-17T09:54:31.531Z,3.57
2023-03-17T09:57:38.762Z,4.53
2023-03-17T10:00:08.037Z,4.13
2023-03-17T10:05:32.031Z,3.40
2023-03-17T10:08:30.665Z,5.57
2023-03-17T10:11:22.448Z,6.75
2023-03-17T10:14:00.131Z,5.37
2023-03-17T10:16:47.034Z,4.60
2023-03-17T10:19:22.024Z,6.00
2023-03-17T10:21:59.048Z,6.60
2023-03-17T10:24:29.970Z,6.03
2023-03-17T10:27:01.140Z,3.97
2023-03-17T10:29:29.299Z,3.33
2023-03-17T10:31:58.556Z,3.90
2023-03-17T10:34:30.584Z,3.87
2023-03-17T10:37:05.843Z,4.10
2023-03-17T10:39:44.836Z,4.13
2023-03-17T10:42:20.284Z,4.33
2023-03-17T10:44:52.964Z,3.60
2023-03-17T10:47:29.127Z,4.13
2023-03-17T10:49:58.371Z,4.13
2023-03-17T10:52:30.426Z,4.43
2023-03-17T10:55:07.666Z,4.80
2023-03-17T10:57:39.119Z,4.90
2023-03-17T11:00:20.212Z,4.20
2023-03-17T11:02:56.494Z,4.43
2023-03-17T11:05:29.378Z,4.93
2023-03-17T11:08:10.600Z,4.87
2023-03-17T11:10:40.733Z,5.17
2023-03-17T11:13:08.845Z,4.33
2023-03-17T11:15:44.049Z,12.37
2023-03-17T11:18:21.848Z,4.37
2023-03-17T11:21:11.792Z,4.90
2023-03-17T11:23:42.665Z,5.03
2023-03-17T11:26:54.334Z,5.40
2023-03-17T11:30:06.775Z,4.37
2023-03-17T11:32:48.051Z,4.20
2023-03-17T11:35:22.046Z,4.43
2023-03-17T11:38:09.369Z,4.67
2023-03-17T11:40:44.347Z,4.60
2023-03-17T11:43:11.646Z,3.50
2023-03-17T11:45:54.592Z,3.70
2023-03-17T11:48:47.376Z,4.50
2023-03-17T11:51:40.992Z,3.40
2023-03-17T11:54:31.404Z,3.63
2023-03-17T11:57:03.552Z,3.87
2023-03-17T11:59:33.766Z,4.30
2023-03-17T12:02:32.606Z,3.83
2023-03-17T12:05:06.482Z,3.05
2023-03-17T12:08:03.435Z,2.73
2023-03-17T12:10:40.798Z,2.90
2023-03-17T12:13:19.177Z,3.20
2023-03-17T12:15:56.699Z,3.10
2023-03-17T12:18:31.418Z,2.83
2023-03-17T12:21:05.682Z,3.20
2023-03-17T12:23:42.356Z,2.90
2023-03-17T12:26:32.927Z,2.90
2023-03-17T12:29:07.096Z,2.73
2023-03-17T12:31:37.726Z,5.70
2023-03-17T12:34:39.486Z,3.87
2023-03-17T12:37:07.813Z,2.57
2023-03-17T12:39:37.489Z,4.73
2023-03-17T12:42:28.274Z,2.67
2023-03-17T12:45:04.913Z,5.10
2023-03-17T12:47:38.362Z,3.90
2023-03-17T12:50:16.093Z,3.33
2023-03-17T12:53:14.585Z,2.73
2023-03-17T12:58:39.140Z,17.50
2023-03-17T13:01:15.570Z,5.60
2023-03-17T13:04:22.295Z,6.37
2023-03-17T13:07:16.104Z,4.90
2023-03-17T13:10:12.120Z,5.57
2023-03-17T13:12:39.757Z,5.20
2023-03-17T13:15:25.467Z,3.93
2023-03-17T13:18:10.927Z,2.67
2023-03-17T13:20:56.836Z,3.50
2023-03-17T13:23:42.901Z,3.33
2023-03-17T13:26:21.101Z,4.10
2023-03-17T13:28:51.189Z,3.47
2023-03-17T13:31:28.576Z,3.10
2023-03-17T13:34:02.862Z,4.37
2023-03-17T13:36:36.612Z,4.20
2023-03-17T13:39:18.809Z,4.10
2023-03-17T13:42:05.483Z,4.60
2023-03-17T13:44:55.013Z,3.67
2023-03-17T13:47:31.694Z,3.03
2023-03-17T13:50:06.803Z,3.30
2023-03-17T13:52:41.629Z,3.37
2023-03-17T13:55:18.654Z,3.23
2023-03-17T13:58:10.851Z,3.93
2023-03-17T14:00:49.169Z,4.20
2023-03-17T14:03:30.411Z,5.57
2023-03-17T14:06:01.473Z,2.63
2023-03-17T14:08:35.809Z,3.73
2023-03-17T14:11:16.330Z,2.50
2023-03-17T14:14:04.216Z,2.60
2023-03-17T14:16:43.444Z,2.47
2023-03-17T14:19:17.824Z,2.47
2023-03-17T14:21:45.581Z,1.63
2023-03-17T14:24:39.931Z,2.73
2023-03-17T14:27:09.245Z,2.00
2023-03-17T14:29:37.557Z,2.20
2023-03-17T14:32:13.495Z,2.43
2023-03-17T14:34:45.971Z,2.47
2023-03-17T14:37:13.347Z,2.40
2023-03-17T14:39:47.469Z,5.20
2023-03-17T14:42:20.701Z,4.63
2023-03-17T14:44:48.421Z,3.00
2023-03-17T14:47:25.026Z,2.07
2023-03-17T14:49:55.862Z,2.27
2023-03-17T14:52:28.930Z,2.47
2023-03-17T14:54:59.468Z,2.60
2023-03-17T14:57:30.455Z,2.20
2023-03-17T15:00:00.963Z,2.33
2023-03-17T15:02:35.162Z,2.07
2023-03-17T15:05:36.582Z,1.87
2023-03-17T15:08:36.453Z,2.40
2023-03-17T15:11:05.951Z,2.13
2023-03-17T15:13:36.538Z,3.10
2023-03-17T15:16:17.896Z,2.00
2023-03-17T15:18:45.676Z,3.07
2023-03-17T15:21:41.261Z,2.90
2023-03-17T15:24:26.136Z,2.60
2023-03-17T15:27:02.018Z,3.90
2023-03-17T15:29:30.553Z,2.90
2023-03-17T15:32:11.132Z,5.17
2023-03-17T15:34:38.556Z,5.93
2023-03-17T15:37:14.692Z,6.63
2023-03-17T15:39:42.493Z,6.40
2023-03-17T15:42:10.373Z,58.00
2023-03-17T15:44:37.730Z,19.80
2023-03-17T15:47:05.605Z,5.03
2023-03-17T15:49:35.164Z,37.80
2023-03-17T15:52:02.495Z,12.40
2023-03-17T15:54:29.930Z,27.33
2023-03-17T15:56:57.769Z,16.17
2023-03-17T15:59:25.176Z,9.90
2023-03-17T16:01:52.673Z,10.47
2023-03-17T16:04:21.159Z,9.97
2023-03-17T16:06:49.232Z,10.50
2023-03-17T16:09:17.810Z,13.90
2023-03-17T16:11:45.752Z,11.68
2023-03-17T16:14:13.156Z,8.00
2023-03-17T16:16:43.780Z,15.80
2023-03-17T16:19:23.598Z,16.80
2023-03-17T16:21:51.826Z,13.17
2023-03-17T16:24:24.706Z,11.77
2023-03-17T16:26:52.720Z,10.60
2023-03-17T16:29:21.909Z,12.27
2023-03-17T16:31:51.178Z,11.48
2023-03-17T16:36:51.612Z,7.23
2023-03-17T16:39:22.603Z,5.80
2023-03-17T16:41:50.611Z,6.30
2023-03-17T16:44:21.232Z,19.50
2023-03-17T16:46:48.820Z,21.03
2023-03-17T16:49:18.753Z,16.13
2023-03-17T16:51:48.718Z,13.80
2023-03-17T16:54:16.709Z,10.23
2023-03-17T16:56:44.098Z,9.67
2023-03-17T16:59:20.465Z,7.00
2023-03-17T17:01:47.912Z,9.70
2023-03-17T17:04:15.647Z,17.90
2023-03-17T17:06:43.005Z,49.37
2023-03-17T17:09:10.513Z,64.10
2023-03-17T17:11:38.243Z,28.43
2023-03-17T17:14:05.834Z,13.57
2023-03-17T17:16:40.030Z,12.30
2023-03-17T17:19:16.387Z,18.67
2023-03-17T17:21:44.908Z,10.47
2023-03-17T17:24:13.461Z,8.55
2023-03-17T17:26:41.736Z,6.67
2023-03-17T17:29:09.664Z,5.13
2023-03-17T17:31:37.492Z,5.17
2023-03-17T17:34:05.107Z,7.13
2023-03-17T17:36:35.677Z,10.47
2023-03-17T17:39:03.607Z,24.43
2023-03-17T17:41:32.618Z,102.70
2023-03-17T17:44:00.279Z,24.75
2023-03-17T17:46:28.021Z,9.23
2023-03-17T17:48:56.328Z,6.03
2023-03-17T17:51:25.196Z,4.83
2023-03-17T17:53:55.795Z,11.53
2023-03-17T17:56:24.759Z,28.27
2023-03-17T17:58:52.088Z,26.05
2023-03-17T18:01:22.739Z,23.10
2023-03-17T18:03:50.639Z,22.40
2023-03-17T18:06:18.244Z,9.87
2023-03-17T18:08:46.469Z,5.43
2023-03-17T18:11:14.265Z,5.97
2023-03-17T18:13:41.621Z,5.07
2023-03-17T18:16:12.643Z,5.60
2023-03-17T18:18:42.484Z,4.47
2023-03-17T18:21:10.194Z,13.07
2023-03-17T18:23:38.688Z,26.20
2023-03-17T18:26:06.580Z,33.13
2023-03-17T18:28:34.238Z,29.83
2023-03-17T18:31:10.668Z,34.20
2023-03-17T18:33:40.820Z,31.83
2023-03-17T18:36:09.121Z,28.70
2023-03-17T18:38:36.628Z,31.37
2023-03-17T18:41:06.297Z,30.57
2023-03-17T18:46:00.980Z,26.93
2023-03-17T18:48:28.729Z,26.43
2023-03-17T18:50:56.398Z,37.97
2023-03-17T18:53:23.717Z,31.87
2023-03-17T18:55:51.868Z,31.80
2023-03-17T18:58:19.218Z,45.80
2023-03-17T19:00:47.493Z,32.30
2023-03-17T19:03:15.359Z,26.98
2023-03-17T19:05:42.874Z,18.07
2023-03-17T19:08:10.607Z,16.37
2023-03-17T19:10:38.321Z,13.53
2023-03-17T19:13:06.802Z,11.97
2023-03-17T19:18:03.646Z,8.37
2023-03-17T19:20:32.097Z,9.50
2023-03-17T19:22:59.873Z,9.32
2023-03-17T19:25:27.556Z,8.17
2023-03-17T19:27:55.372Z,9.07
2023-03-17T19:30:22.809Z,9.47
2023-03-17T19:32:50.731Z,10.00
2023-03-17T19:35:18.513Z,37.77
2023-03-17T19:37:46.309Z,15.60
2023-03-17T19:40:14.506Z,17.40
2023-03-17T19:42:41.861Z,15.03
2023-03-17T19:45:09.875Z,39.97
2023-03-17T19:47:37.669Z,20.20
2023-03-17T19:50:05.892Z,12.87
2023-03-17T19:52:33.447Z,10.77
2023-03-17T19:55:01.276Z,9.07
2023-03-17T19:57:28.674Z,6.83
2023-03-17T19:59:56.434Z,7.77
2023-03-17T20:02:24.156Z,8.23
2023-03-17T20:04:51.993Z,28.63
2023-03-17T20:07:19.486Z,38.80
2023-03-17T20:09:48.170Z,70.40
2023-03-17T20:12:16.218Z,24.40
2023-03-17T20:14:43.647Z,9.50
2023-03-17T20:17:12.265Z,6.77
2023-03-17T20:19:40.273Z,6.93
2023-03-17T20:22:07.854Z,6.33
2023-03-17T20:24:36.567Z,6.13
2023-03-17T20:27:05.334Z,7.43
2023-03-17T20:29:32.868Z,8.10
2023-03-17T20:32:01.129Z,8.97
2023-03-17T20:34:28.898Z,13.38
2023-03-17T20:36:56.437Z,15.10
2023-03-17T20:39:24.206Z,14.10
2023-03-17T20:41:52.563Z,9.83
2023-03-17T20:44:21.304Z,6.40
2023-03-17T20:46:48.770Z,6.07
2023-03-17T20:49:17.717Z,7.00
2023-03-17T20:51:46.580Z,6.10
2023-03-17T20:54:14.532Z,4.37
2023-03-17T20:56:42.374Z,6.25
2023-03-17T20:59:13.646Z,9.07
2023-03-17T21:01:42.713Z,6.37
2023-03-17T21:06:38.897Z,5.00
2023-03-17T21:09:06.342Z,7.03
2023-03-17T21:11:34.313Z,17.63
2023-03-17T21:14:03.547Z,24.30
2023-03-17T21:16:31.317Z,22.70
2023-03-17T21:18:59.374Z,23.17
2023-03-17T21:21:27.512Z,24.20
2023-03-17T21:23:55.922Z,21.57
2023-03-17T21:26:24.866Z,23.85
2023-03-17T21:28:52.806Z,17.75
2023-03-17T21:31:20.349Z,14.00
2023-03-17T21:33:51.443Z,8.97
2023-03-17T21:36:21.062Z,8.57
2023-03-17T21:38:48.908Z,8.57
2023-03-17T21:41:30.552Z,15.77
2023-03-17T21:43:58.292Z,26.07
2023-03-17T21:46:26.163Z,19.87
2023-03-17T21:48:57.170Z,26.07
2023-03-17T21:51:25.378Z,25.70
2023-03-17T21:53:53.176Z,30.27
2023-03-17T21:56:21.004Z,45.13
2023-03-17T21:58:49.315Z,45.47
2023-03-17T22:01:18.333Z,52.27
2023-03-17T22:06:14.648Z,19.97
2023-03-17T22:08:42.557Z,23.52
2023-03-17T22:11:13.467Z,24.83
2023-03-17T22:13:41.406Z,23.10
2023-03-17T22:16:10.157Z,22.50
2023-03-17T22:18:38.477Z,25.60
2023-03-17T22:21:06.813Z,27.23
2023-03-17T22:23:39.768Z,21.93
2023-03-17T22:26:11.662Z,13.60
2023-03-17T22:28:40.802Z,14.00
2023-03-17T22:31:20.807Z,16.60
2023-03-17T22:33:49.245Z,16.87
2023-03-17T22:36:18.090Z,8.98
2023-03-17T22:38:46.394Z,9.02
2023-03-17T22:41:17.499Z,8.18
2023-03-17T22:43:45.646Z,8.60
2023-03-17T22:46:14.004Z,20.77
2023-03-17T22:48:41.653Z,29.48
2023-03-17T22:51:12.925Z,27.30
2023-03-17T22:53:41.206Z,21.23
2023-03-17T22:56:11.155Z,19.23
2023-03-17T22:58:39.214Z,24.63
2023-03-17T23:01:07.715Z,26.57
2023-03-17T23:03:36.083Z,24.98
2023-03-17T23:06:05.044Z,25.47
2023-03-17T23:08:35.460Z,24.73
2023-03-17T23:11:07.263Z,25.03
2023-03-17T23:13:35.744Z,37.80
2023-03-17T23:16:04.925Z,35.13
2023-03-17T23:18:32.741Z,32.90
2023-03-17T23:21:02.674Z,33.77
2023-03-17T23:23:30.835Z,34.20
2023-03-17T23:25:58.986Z,28.40
2023-03-17T23:28:26.908Z,22.73
2023-03-17T23:30:55.361Z,17.47
2023-03-17T23:33:25.669Z,14.87
2023-03-17T23:35:53.169Z,14.57
2023-03-17T23:38:21.602Z,13.97
2023-03-17T23:40:50.225Z,13.17
2023-03-17T23:43:17.714Z,10.57
2023-03-17T23:45:45.626Z,13.07
2023-03-17T23:48:12.920Z,16.73
2023-03-17T23:50:41.372Z,18.43
2023-03-17T23:53:09.779Z,17.23
2023-03-17T23:55:37.418Z,21.97
2023-03-17T23:58:05.168Z,23.27
